Time;durP1;ratioP1;P1;durP2;ratioP2;P2;SDS_P1;SDS_P2;PMS_P1;PMS_P2;Temp;Humidity;BMP_temperature;BMP_pressure;BME280_temperature;BME280_humidity;BME280_pressure;Samples;Min_cycle;Max_cycle;Signal;HPM_P1;HPM_P2
2021/04/28 00:01:08;;;;;;;24.58;13.75;;;;;;;10.77;100.00;96986.94;4948226;29;20046;-86
2021/04/28 00:03:34;;;;;;;20.60;11.35;;;;;;;10.75;100.00;96981.72;4966031;28;20033;-86
2021/04/28 00:05:59;;;;;;;20.88;11.10;;;;;;;10.79;100.00;96990.38;4958713;28;20034;-85
2021/04/28 00:08:25;;;;;;;18.90;10.13;;;;;;;10.74;100.00;96988.00;4975424;28;20038;-85
2021/04/28 00:10:51;;;;;;;16.15;10.07;;;;;;;10.76;100.00;96993.25;4931331;29;20117;-86
2021/04/28 00:13:17;;;;;;;15.07;9.32;;;;;;;10.72;100.00;96991.75;4936816;28;20034;-86
2021/04/28 00:15:46;;;;;;;14.52;9.95;;;;;;;10.71;100.00;97001.59;4968467;28;20506;-85
2021/04/28 00:18:15;;;;;;;17.95;9.27;;;;;;;10.60;100.00;96982.81;4958421;28;20121;-86
2021/04/28 00:20:41;;;;;;;16.80;10.15;;;;;;;10.61;100.00;96991.69;4940065;28;20109;-87
2021/04/28 00:23:08;;;;;;;15.05;9.38;;;;;;;10.53;100.00;96988.69;4941062;28;20027;-87
2021/04/28 00:25:35;;;;;;;17.77;10.40;;;;;;;10.46;100.00;96995.44;4951165;28;20667;-87
2021/04/28 00:28:01;;;;;;;14.27;9.98;;;;;;;10.40;100.00;97001.22;4938209;29;20031;-87
2021/04/28 00:30:26;;;;;;;18.55;10.77;;;;;;;10.44;100.00;96997.34;4934471;29;20042;-87
2021/04/28 00:32:53;;;;;;;19.02;10.60;;;;;;;10.46;100.00;96990.09;4930986;29;20034;-87
2021/04/28 00:35:19;;;;;;;16.90;10.15;;;;;;;10.54;100.00;96987.72;4938097;28;20104;-87
2021/04/28 00:37:45;;;;;;;15.02;9.13;;;;;;;10.68;100.00;97006.31;4946688;28;20026;-86
2021/04/28 00:40:14;;;;;;;20.10;10.32;;;;;;;10.68;100.00;97001.81;4940171;28;20468;-87
2021/04/28 00:42:43;;;;;;;17.40;9.50;;;;;;;10.59;100.00;96998.94;4957712;28;20030;-87
2021/04/28 00:45:09;;;;;;;15.20;9.63;;;;;;;10.56;100.00;96993.81;4929674;29;20042;-87
2021/04/28 00:47:35;;;;;;;19.23;9.00;;;;;;;10.58;100.00;96991.91;4941023;28;20069;-87
2021/04/28 00:50:01;;;;;;;15.25;9.45;;;;;;;10.47;100.00;96986.44;4958835;28;20109;-87
2021/04/28 00:52:27;;;;;;;18.35;10.00;;;;;;;10.48;100.00;96991.69;4961493;28;20034;-87
2021/04/28 00:54:53;;;;;;;22.15;10.10;;;;;;;10.41;100.00;96989.53;4958968;28;20036;-87
2021/04/28 00:57:18;;;;;;;13.82;9.73;;;;;;;10.32;100.00;96999.06;4942030;28;20030;-87
2021/04/28 00:59:44;;;;;;;16.08;9.50;;;;;;;10.19;100.00;96996.38;4949900;28;20034;-87
2021/04/28 01:02:10;;;;;;;16.67;9.63;;;;;;;9.97;100.00;96990.78;4949646;28;20022;-86
2021/04/28 01:04:35;;;;;;;14.68;9.65;;;;;;;9.94;100.00;96999.00;4956660;28;20026;-87
2021/04/28 01:07:02;;;;;;;17.95;9.95;;;;;;;9.92;100.00;97000.06;4954028;28;20386;-87
2021/04/28 01:09:28;;;;;;;16.92;10.68;;;;;;;9.68;100.00;96975.88;4953630;28;20112;-85
2021/04/28 01:11:54;;;;;;;26.83;11.63;;;;;;;9.64;100.00;96999.25;4951448;28;20461;-86
2021/04/28 01:14:20;;;;;;;19.13;10.98;;;;;;;9.68;100.00;97002.59;4946238;28;20031;-87
2021/04/28 01:16:46;;;;;;;16.27;10.77;;;;;;;9.66;100.00;96999.16;4950005;28;20034;-87
2021/04/28 01:19:13;;;;;;;20.75;11.68;;;;;;;9.62;100.00;96997.66;4947323;28;20034;-86
2021/04/28 01:21:40;;;;;;;21.20;12.00;;;;;;;9.64;100.00;96993.06;4949032;28;20457;-85
2021/04/28 01:24:06;;;;;;;26.00;13.15;;;;;;;9.68;100.00;97002.59;4952369;28;20038;-85
2021/04/28 01:26:33;;;;;;;30.00;14.60;;;;;;;9.63;100.00;96986.00;4944691;28;20473;-85
2021/04/28 01:29:00;;;;;;;24.33;13.63;;;;;;;9.70;100.00;97003.34;4951211;28;20037;-87
2021/04/28 01:31:27;;;;;;;21.65;12.85;;;;;;;9.67;100.00;96987.53;4945554;28;20105;-85
2021/04/28 01:33:55;;;;;;;19.67;12.52;;;;;;;9.76;100.00;97002.91;4941985;28;20034;-85
2021/04/28 01:36:24;;;;;;;19.13;12.45;;;;;;;9.70;100.00;96990.84;4975800;28;20037;-84
2021/04/28 01:38:55;;;;;;;25.50;13.05;;;;;;;9.71;100.00;96991.69;4951321;28;20026;-85
2021/04/28 01:41:21;;;;;;;23.10;13.45;;;;;;;9.79;100.00;96990.22;4959949;28;20115;-86
2021/04/28 01:43:46;;;;;;;27.10;13.90;;;;;;;9.73;100.00;96981.75;4951469;28;20026;-85
2021/04/28 01:46:13;;;;;;;27.70;14.63;;;;;;;9.63;100.00;96980.66;4975740;28;20045;-85
2021/04/28 01:48:40;;;;;;;21.40;12.50;;;;;;;9.75;100.00;96983.38;4959854;28;20485;-86
2021/04/28 01:51:06;;;;;;;21.60;13.20;;;;;;;9.79;100.00;96981.34;4945565;28;20590;-85
2021/04/28 01:53:32;;;;;;;17.13;11.23;;;;;;;9.77;100.00;96978.78;4960783;28;20383;-85
2021/04/28 01:55:58;;;;;;;24.00;11.95;;;;;;;9.73;100.00;96973.75;4937547;28;20089;-85
2021/04/28 01:58:25;;;;;;;21.40;12.90;;;;;;;9.80;100.00;96975.06;4961236;28;20113;-85
2021/04/28 02:00:52;;;;;;;21.05;13.38;;;;;;;9.83;100.00;96977.53;4938736;28;20061;-85
2021/04/28 02:03:21;;;;;;;22.35;12.95;;;;;;;9.78;100.00;96971.66;4933772;28;20487;-86
2021/04/28 02:05:47;;;;;;;22.75;13.05;;;;;;;9.79;100.00;96968.00;4955807;28;20035;-86
2021/04/28 02:08:12;;;;;;;24.45;14.23;;;;;;;9.71;100.00;96962.31;4956235;28;20023;-79
2021/04/28 02:10:38;;;;;;;24.40;13.45;;;;;;;9.81;100.00;96968.75;4968933;28;20070;-87
2021/04/28 02:13:03;;;;;;;25.10;13.65;;;;;;;9.79;100.00;96968.84;4939835;28;20035;-87
2021/04/28 02:15:30;;;;;;;23.83;13.60;;;;;;;9.85;100.00;96975.59;4948347;28;20050;-88
2021/04/28 02:18:02;;;;;;;28.88;13.98;;;;;;;9.87;100.00;96971.00;4972200;28;20034;-87
2021/04/28 02:20:28;;;;;;;22.20;13.25;;;;;;;9.97;100.00;96979.22;4942211;29;20031;-85
2021/04/28 02:22:55;;;;;;;21.98;12.30;;;;;;;10.08;100.00;96993.59;4935474;29;20505;-86
2021/04/28 02:25:20;;;;;;;24.17;13.25;;;;;;;10.01;100.00;96978.06;4948379;28;20023;-85
2021/04/28 02:27:52;;;;;;;22.52;12.20;;;;;;;10.04;100.00;96991.22;4931859;28;20174;-86
2021/04/28 02:30:19;;;;;;;25.30;12.85;;;;;;;10.15;100.00;96997.56;4933877;28;20471;-86
2021/04/28 02:32:45;;;;;;;22.67;11.93;;;;;;;10.25;100.00;96998.63;4959453;28;20049;-86
2021/04/28 02:35:12;;;;;;;22.15;12.25;;;;;;;10.33;100.00;97007.00;4939902;28;20406;-86
2021/04/28 02:37:40;;;;;;;24.20;11.68;;;;;;;10.29;100.00;97002.81;4952140;28;20058;-86
2021/04/28 02:40:11;;;;;;;22.60;12.13;;;;;;;10.36;100.00;97005.06;4929289;28;20071;-86
2021/04/28 02:42:39;;;;;;;23.60;12.70;;;;;;;10.43;100.00;97001.00;4926870;28;20487;-86
2021/04/28 02:45:06;;;;;;;19.77;11.93;;;;;;;10.63;100.00;97013.81;4955109;28;20030;-86
2021/04/28 02:47:33;;;;;;;23.70;12.43;;;;;;;10.49;100.00;96995.22;4945208;28;20133;-86
2021/04/28 02:49:59;;;;;;;26.50;11.70;;;;;;;10.59;100.00;97009.63;4939212;28;20421;-86
2021/04/28 02:52:28;;;;;;;20.48;11.48;;;;;;;10.60;98.98;97014.03;4927167;29;20031;-86
2021/04/28 02:54:54;;;;;;;19.80;11.38;;;;;;;10.56;98.45;97005.38;4944709;28;20034;-85
2021/04/28 02:57:21;;;;;;;18.95;11.80;;;;;;;10.50;99.21;97008.47;4939563;28;20053;-86
2021/04/28 02:59:47;;;;;;;19.50;12.27;;;;;;;10.52;99.16;97001.19;4939186;28;20418;-85
2021/04/28 03:02:12;;;;;;;24.15;12.57;;;;;;;10.58;99.42;97015.97;4955264;28;20143;-85
2021/04/28 03:04:41;;;;;;;24.08;13.70;;;;;;;10.61;100.00;97005.06;4936208;29;20063;-85
2021/04/28 03:07:11;;;;;;;21.73;13.02;;;;;;;10.70;99.57;97009.75;4938237;28;20049;-85
2021/04/28 03:09:36;;;;;;;27.70;13.63;;;;;;;10.77;98.81;97009.19;4939359;28;20045;-85
2021/04/28 03:12:03;;;;;;;24.23;15.00;;;;;;;10.81;99.06;97017.84;4955173;28;20038;-85
2021/04/28 03:14:28;;;;;;;24.05;14.15;;;;;;;10.77;98.54;97014.53;4939190;28;20078;-85
2021/04/28 03:16:54;;;;;;;26.13;13.45;;;;;;;10.81;98.72;97017.84;4938844;28;20031;-86
2021/04/28 03:19:20;;;;;;;22.02;13.82;;;;;;;10.83;98.89;97026.63;4944306;29;20035;-87
2021/04/28 03:21:49;;;;;;;23.90;13.68;;;;;;;10.80;98.77;97019.66;4951885;29;20066;-86
2021/04/28 03:24:15;;;;;;;18.42;12.20;;;;;;;10.91;98.40;97029.63;4938802;28;20104;-87
2021/04/28 03:26:41;;;;;;;20.20;12.18;;;;;;;10.88;98.76;97025.34;4939993;28;20035;-87
2021/04/28 03:29:07;;;;;;;18.95;12.70;;;;;;;11.04;98.19;97046.53;4926431;28;20502;-87
2021/04/28 03:31:33;;;;;;;24.30;12.50;;;;;;;11.04;98.12;97038.50;4937712;29;20130;-87
2021/04/28 03:33:59;;;;;;;20.73;12.15;;;;;;;11.08;97.84;97048.00;4931682;28;20477;-87
2021/04/28 03:36:25;;;;;;;32.85;13.35;;;;;;;11.08;97.43;97047.13;4943290;28;20110;-87
2021/04/28 03:38:52;;;;;;;26.00;13.25;;;;;;;11.26;97.12;97072.56;4942306;28;20031;-90
2021/04/28 03:41:17;;;;;;;18.30;11.95;;;;;;;11.11;97.87;97058.47;4942443;28;20038;-86
2021/04/28 03:43:43;;;;;;;26.73;13.57;;;;;;;11.09;97.40;97060.41;4942430;28;20030;-87
2021/04/28 03:46:09;;;;;;;20.77;13.20;;;;;;;11.22;96.89;97073.78;4942377;28;20034;-85
2021/04/28 03:48:35;;;;;;;23.17;12.73;;;;;;;11.18;98.00;97077.63;4942503;28;20113;-85
2021/04/28 03:51:01;;;;;;;25.70;13.15;;;;;;;11.21;97.51;97072.91;4947075;28;20051;-85
2021/04/28 03:53:27;;;;;;;21.38;12.80;;;;;;;11.20;97.81;97078.34;4938706;29;20019;-85
2021/04/28 03:55:52;;;;;;;25.52;14.45;;;;;;;11.19;98.08;97080.22;4969765;28;20387;-84
2021/04/28 03:58:18;;;;;;;28.85;13.77;;;;;;;11.28;97.45;97084.03;4939451;28;20038;-86
2021/04/28 04:00:43;;;;;;;28.52;13.32;;;;;;;11.27;97.60;97090.34;4931262;29;20384;-85
2021/04/28 04:03:09;;;;;;;29.67;14.05;;;;;;;11.25;97.67;97089.63;4955058;28;20031;-86
2021/04/28 04:05:34;;;;;;;43.90;15.13;;;;;;;11.26;98.07;97088.63;4934901;28;20379;-74
2021/04/28 04:08:00;;;;;;;26.77;13.57;;;;;;;11.29;97.40;97094.63;4941695;28;20079;-74
2021/04/28 04:10:26;;;;;;;23.35;14.25;;;;;;;11.18;97.69;97099.91;4957253;28;20483;-74
2021/04/28 04:12:51;;;;;;;26.00;15.63;;;;;;;11.19;97.89;97104.31;4941048;28;20035;-75
2021/04/28 04:15:17;;;;;;;23.65;13.15;;;;;;;11.27;97.77;97107.28;4955166;28;20482;-75
2021/04/28 04:17:42;;;;;;;30.88;14.25;;;;;;;11.34;96.72;97108.56;4963363;28;20058;-75
2021/04/28 04:20:08;;;;;;;31.30;14.35;;;;;;;11.42;96.66;97108.84;4937898;29;20046;-75
2021/04/28 04:22:34;;;;;;;49.75;17.23;;;;;;;11.53;95.77;97123.28;4938311;29;20027;-75
2021/04/28 04:25:00;;;;;;;31.98;14.90;;;;;;;11.43;95.99;97118.59;4970709;28;20497;-75
2021/04/28 04:27:26;;;;;;;31.08;14.38;;;;;;;11.50;95.64;97128.88;4956797;28;20034;-75
2021/04/28 04:29:51;;;;;;;32.05;14.95;;;;;;;11.43;95.96;97123.09;4957171;28;20030;-75
2021/04/28 04:32:17;;;;;;;33.65;15.70;;;;;;;11.46;96.21;97127.38;4956764;28;20497;-75
2021/04/28 04:34:46;;;;;;;35.95;19.70;;;;;;;11.47;95.76;97131.75;4944228;29;20031;-75
2021/04/28 04:37:11;;;;;;;33.50;17.90;;;;;;;11.54;94.85;97139.22;4954193;28;20403;-76
2021/04/28 04:39:37;;;;;;;38.83;17.65;;;;;;;11.50;95.53;97134.22;4939824;28;20026;-75
2021/04/28 04:42:03;;;;;;;32.13;17.73;;;;;;;11.57;95.38;97136.34;4958423;28;20027;-76
2021/04/28 04:44:29;;;;;;;34.78;19.45;;;;;;;11.66;94.76;97146.38;4937150;28;20098;-76
2021/04/28 04:46:54;;;;;;;41.63;20.77;;;;;;;11.72;94.56;97145.13;4951472;28;20114;-75
2021/04/28 04:49:20;;;;;;;40.80;21.20;;;;;;;11.74;94.23;97144.03;4938820;28;20026;-75
2021/04/28 04:51:45;;;;;;;70.15;22.95;;;;;;;11.79;94.56;97143.69;4918229;29;20111;-76
2021/04/28 04:54:11;;;;;;;41.47;25.15;;;;;;;11.76;95.28;97147.47;4934279;29;20086;-75
2021/04/28 04:56:37;;;;;;;39.33;20.05;;;;;;;11.77;95.87;97149.19;4936991;29;20027;-75
2021/04/28 04:59:03;;;;;;;36.40;19.30;;;;;;;11.77;96.02;97154.53;4921294;29;20043;-75
2021/04/28 05:01:28;;;;;;;36.08;18.92;;;;;;;11.78;97.50;97153.56;4921317;29;20426;-75
2021/04/28 05:03:54;;;;;;;37.15;20.15;;;;;;;11.93;97.53;97155.09;4921512;29;20030;-75
2021/04/28 05:06:21;;;;;;;37.60;19.40;;;;;;;12.00;97.34;97150.16;4921269;29;20053;-75
2021/04/28 05:08:47;;;;;;;34.72;18.35;;;;;;;12.15;96.45;97162.41;4953247;29;20058;-75
2021/04/28 05:11:13;;;;;;;36.00;19.38;;;;;;;12.08;95.73;97163.00;4952961;29;20035;-75
2021/04/28 05:13:38;;;;;;;32.72;19.20;;;;;;;11.89;96.26;97164.38;4952897;28;20487;-75
2021/04/28 05:16:04;;;;;;;31.60;18.02;;;;;;;11.88;97.19;97167.13;4941362;29;20112;-74
2021/04/28 05:18:30;;;;;;;38.58;18.98;;;;;;;11.95;96.72;97171.09;4936962;29;20035;-75
2021/04/28 05:20:55;;;;;;;38.08;18.10;;;;;;;12.05;96.74;97174.81;4954062;28;20031;-75
2021/04/28 05:23:21;;;;;;;31.33;17.60;;;;;;;12.11;95.68;97173.50;4952545;29;20031;-76
2021/04/28 05:25:46;;;;;;;35.58;18.55;;;;;;;11.96;96.08;97164.78;4936809;29;20118;-76
2021/04/28 05:28:12;;;;;;;39.17;19.02;;;;;;;12.04;96.53;97178.44;4936692;29;20042;-74
2021/04/28 05:30:37;;;;;;;30.52;17.67;;;;;;;12.08;95.69;97174.59;4944794;29;20038;-75
2021/04/28 05:33:04;;;;;;;31.98;17.90;;;;;;;12.04;96.04;97170.41;4936777;29;20034;-75
2021/04/28 05:35:30;;;;;;;30.88;18.42;;;;;;;12.02;96.56;97172.34;4952564;28;20066;-74
2021/04/28 05:37:56;;;;;;;38.22;18.73;;;;;;;11.97;97.29;97161.09;4942854;29;20062;-75
2021/04/28 05:40:23;;;;;;;41.35;19.40;;;;;;;11.89;99.15;97158.13;4936169;29;20046;-75
2021/04/28 05:42:49;;;;;;;35.50;19.85;;;;;;;12.00;98.43;97171.59;4952591;29;20065;-75
2021/04/28 05:45:15;;;;;;;35.72;19.00;;;;;;;12.00;97.72;97168.91;4952668;29;20054;-76
2021/04/28 05:47:41;;;;;;;42.47;19.45;;;;;;;12.11;97.81;97173.50;4950341;28;20439;-76
2021/04/28 05:50:09;;;;;;;55.17;21.77;;;;;;;12.04;98.10;97178.44;4937075;28;20031;-76
2021/04/28 05:52:35;;;;;;;38.05;20.90;;;;;;;12.10;98.44;97183.38;4939228;28;20545;-76
2021/04/28 05:55:01;;;;;;;51.60;25.85;;;;;;;12.09;98.47;97172.78;4955473;28;20169;-75
2021/04/28 05:57:26;;;;;;;47.33;23.80;;;;;;;12.17;97.25;97186.44;4955588;28;20045;-76
2021/04/28 05:59:52;;;;;;;30.38;18.60;;;;;;;12.09;96.30;97181.63;4955392;28;20173;-76
2021/04/28 06:02:17;;;;;;;32.38;18.02;;;;;;;12.02;96.17;97175.03;4955423;28;20086;-76
2021/04/28 06:04:43;;;;;;;63.38;19.42;;;;;;;12.14;95.93;97184.00;4954967;28;20470;-76
2021/04/28 06:07:08;;;;;;;47.30;20.95;;;;;;;12.14;95.60;97173.28;4955534;28;20451;-76
2021/04/28 06:09:34;;;;;;;43.67;17.55;;;;;;;12.17;95.57;97157.81;4954932;28;20486;-76
2021/04/28 06:12:00;;;;;;;34.90;18.48;;;;;;;12.26;95.29;97146.41;4955374;28;20038;-76
2021/04/28 06:14:26;;;;;;;34.72;17.42;;;;;;;12.40;94.48;97151.56;4955173;28;20027;-76
2021/04/28 06:16:51;;;;;;;31.90;17.02;;;;;;;12.49;93.64;97156.22;4938807;28;20027;-76
2021/04/28 06:19:17;;;;;;;27.50;16.90;;;;;;;12.55;92.48;97164.81;4939165;28;20034;-76
2021/04/28 06:21:43;;;;;;;33.53;17.75;;;;;;;12.71;91.82;97162.66;4954730;28;20034;-76
2021/04/28 06:24:09;;;;;;;39.22;18.35;;;;;;;12.71;92.01;97142.03;4938902;28;20238;-76
2021/04/28 06:26:36;;;;;;;30.38;18.92;;;;;;;12.95;91.09;97160.78;4938786;28;20453;-76
2021/04/28 06:29:03;;;;;;;33.03;18.90;;;;;;;13.11;89.87;97150.56;4939096;28;20031;-76
2021/04/28 06:31:28;;;;;;;33.35;19.60;;;;;;;13.13;90.18;97148.63;4954904;28;20049;-76
2021/04/28 06:33:54;;;;;;;33.17;19.95;;;;;;;13.48;89.04;97146.69;4954830;28;20463;-76
2021/04/28 06:36:19;;;;;;;36.95;19.60;;;;;;;13.75;87.07;97158.91;4954726;28;20462;-76
2021/04/28 06:38:45;;;;;;;34.25;18.77;;;;;;;13.78;85.96;97167.53;4954589;28;20463;-75
2021/04/28 06:41:10;;;;;;;39.47;22.35;;;;;;;14.02;85.09;97164.72;4970981;28;20521;-76
2021/04/28 06:43:36;;;;;;;41.08;21.77;;;;;;;14.10;85.56;97164.94;4938472;28;20035;-75
2021/04/28 06:46:02;;;;;;;35.08;20.38;;;;;;;14.20;84.03;97162.34;4971993;28;20093;-74
2021/04/28 06:48:27;;;;;;;34.63;19.20;;;;;;;14.31;83.01;97175.75;4954773;28;20498;-74
2021/04/28 06:50:54;;;;;;;37.72;19.13;;;;;;;14.37;82.05;97186.88;4942600;28;20046;-74
2021/04/28 06:53:22;;;;;;;33.67;18.23;;;;;;;14.06;81.60;97180.44;4956713;28;20030;-74
2021/04/28 06:55:47;;;;;;;31.58;17.00;;;;;;;14.18;82.29;97178.59;4974041;28;20034;-75
2021/04/28 06:58:13;;;;;;;32.38;17.05;;;;;;;14.32;82.51;97182.84;4957783;28;20125;-74
2021/04/28 07:00:39;;;;;;;29.83;16.30;;;;;;;14.37;82.50;97197.66;4957509;28;20044;-75
2021/04/28 07:03:05;;;;;;;32.13;16.20;;;;;;;14.57;81.21;97201.38;4977339;28;20117;-75
2021/04/28 07:05:30;;;;;;;30.60;17.08;;;;;;;14.69;80.91;97205.75;4977572;28;20469;-74
2021/04/28 07:07:56;;;;;;;36.42;16.80;;;;;;;14.75;79.45;97202.53;4977844;28;20474;-74
2021/04/28 07:10:22;;;;;;;34.10;16.67;;;;;;;14.22;81.39;97201.56;4977796;28;20104;-75
2021/04/28 07:12:48;;;;;;;34.85;17.13;;;;;;;14.46;80.65;97213.03;4977462;28;20125;-74
2021/04/28 07:15:14;;;;;;;35.25;16.27;;;;;;;14.38;80.69;97223.59;4977734;28;20117;-74
2021/04/28 07:17:39;;;;;;;31.35;16.38;;;;;;;14.80;79.80;97215.59;4961156;28;20026;-75
2021/04/28 07:20:07;;;;;;;35.45;15.73;;;;;;;15.05;78.25;97210.72;4961240;28;20109;-75
2021/04/28 07:22:33;;;;;;;30.30;15.45;;;;;;;15.23;77.42;97213.66;4994583;28;20504;-75
2021/04/28 07:24:59;;;;;;;29.25;15.45;;;;;;;15.40;75.76;97210.38;4961235;28;20382;-75
2021/04/28 07:27:25;;;;;;;30.00;14.82;;;;;;;15.55;74.62;97219.84;4977501;28;20030;-75
2021/04/28 07:29:51;;;;;;;29.30;16.30;;;;;;;15.53;73.69;97216.47;4960946;28;20125;-75
2021/04/28 07:32:16;;;;;;;33.35;15.23;;;;;;;15.41;73.97;97209.38;4994773;28;20058;-74
2021/04/28 07:34:42;;;;;;;28.02;14.52;;;;;;;15.57;73.68;97223.25;4976113;28;20072;-75
2021/04/28 07:37:08;;;;;;;25.75;13.35;;;;;;;15.65;73.47;97220.78;4950853;29;20090;-75
2021/04/28 07:39:34;;;;;;;26.35;14.63;;;;;;;15.88;72.26;97221.44;4956215;28;20415;-75
2021/04/28 07:42:00;;;;;;;26.98;14.77;;;;;;;16.39;70.73;97233.97;4931053;29;20487;-75
2021/04/28 07:44:29;;;;;;;26.88;14.30;;;;;;;16.45;69.34;97238.81;4953513;28;20030;-75
2021/04/28 07:46:55;;;;;;;26.25;14.55;;;;;;;15.97;71.26;97236.78;4958234;28;20039;-75
2021/04/28 07:49:21;;;;;;;30.95;15.13;;;;;;;16.09;70.69;97224.06;4939215;28;20075;-75
2021/04/28 07:51:46;;;;;;;28.10;15.32;;;;;;;16.02;70.43;97229.16;4931556;28;20527;-75
2021/04/28 07:54:12;;;;;;;24.15;14.25;;;;;;;15.56;71.79;97221.59;4955414;28;20034;-75
2021/04/28 07:56:38;;;;;;;33.30;14.85;;;;;;;15.44;73.30;97222.59;4966990;28;20031;-75
2021/04/28 07:59:04;;;;;;;26.33;15.27;;;;;;;15.69;71.97;97224.03;4933980;28;20533;-75
2021/04/28 08:01:29;;;;;;;29.65;16.30;;;;;;;15.91;71.24;97229.25;4966010;28;20565;-75
2021/04/28 08:03:55;;;;;;;31.80;16.92;;;;;;;16.10;69.60;97223.94;4940373;28;20031;-75
2021/04/28 08:06:26;;;;;;;36.20;16.55;;;;;;;16.13;69.75;97236.28;4974879;28;20109;-75
2021/04/28 08:08:51;;;;;;;27.05;14.77;;;;;;;16.01;69.58;97232.00;4941251;28;20033;-75
2021/04/28 08:11:18;;;;;;;28.73;13.52;;;;;;;16.09;69.47;97221.34;4944284;29;20106;-75
2021/04/28 08:13:43;;;;;;;28.20;14.38;;;;;;;16.53;67.64;97229.00;4938196;28;20027;-76
2021/04/28 08:16:09;;;;;;;22.05;14.07;;;;;;;16.50;68.39;97229.28;4941477;28;20078;-76
2021/04/28 08:18:35;;;;;;;25.80;15.05;;;;;;;16.37;68.95;97236.78;4974893;28;20471;-76
2021/04/28 08:21:01;;;;;;;28.42;13.73;;;;;;;16.49;68.71;97238.38;4974199;28;20490;-76
2021/04/28 08:23:30;;;;;;;32.30;12.63;;;;;;;16.64;67.87;97237.00;4973097;28;20023;-76
2021/04/28 08:26:04;;;;;;;23.65;12.90;;;;;;;16.26;67.19;97226.97;4970951;28;20036;-76
2021/04/28 08:28:30;;;;;;;22.15;12.27;;;;;;;16.24;67.36;97231.63;4945420;28;20031;-76
2021/04/28 08:30:55;;;;;;;27.17;13.35;;;;;;;16.62;66.08;97227.34;4952611;28;20026;-75
2021/04/28 08:33:21;;;;;;;50.30;14.38;;;;;;;16.72;66.56;97231.78;4940020;28;20027;-75
2021/04/28 08:35:47;;;;;;;24.90;14.30;;;;;;;16.87;65.98;97226.81;4959395;28;20047;-75
2021/04/28 08:38:12;;;;;;;25.10;14.48;;;;;;;17.13;65.35;97232.50;4974303;28;20471;-76
2021/04/28 08:40:39;;;;;;;28.70;13.00;;;;;;;17.38;63.97;97240.00;4974179;28;20260;-75
2021/04/28 08:43:05;;;;;;;24.27;13.48;;;;;;;17.47;62.36;97241.00;4974149;28;20085;-74
2021/04/28 08:45:31;;;;;;;24.40;13.10;;;;;;;17.18;63.51;97241.88;4965386;28;20083;-75
2021/04/28 08:47:56;;;;;;;24.35;12.77;;;;;;;17.21;63.51;97240.75;4972530;28;20042;-74
2021/04/28 08:50:22;;;;;;;24.00;13.23;;;;;;;17.15;64.28;97235.91;4940356;28;20518;-78
2021/04/28 08:52:51;;;;;;;28.77;14.25;;;;;;;17.17;64.73;97228.50;4973910;28;20117;-76
2021/04/28 08:55:16;;;;;;;26.80;13.48;;;;;;;17.45;64.12;97238.44;4940613;28;20030;-76
2021/04/28 08:57:42;;;;;;;24.40;12.23;;;;;;;17.33;62.48;97224.22;4956569;28;20094;-76
2021/04/28 09:00:08;;;;;;;24.55;14.38;;;;;;;17.11;63.15;97226.38;4940377;28;20053;-75
2021/04/28 09:02:34;;;;;;;22.55;13.27;;;;;;;17.00;63.42;97231.94;4940058;28;20023;-74
2021/04/28 09:05:18;;;;;;;26.00;13.40;;;;;;;16.84;63.92;97232.50;4940029;28;20419;-74
2021/04/28 09:07:45;;;;;;;35.10;14.05;;;;;;;16.79;64.65;97238.34;4973129;28;20132;-75
2021/04/28 09:10:16;;;;;;;36.47;14.50;;;;;;;16.86;64.77;97241.31;4940019;28;20027;-73
2021/04/28 09:12:55;;;;;;;28.80;14.03;;;;;;;16.96;65.48;97247.56;4973344;28;20414;-75
2021/04/28 09:15:42;;;;;;;23.85;13.95;;;;;;;17.02;64.12;97236.19;4973430;28;20030;-75
2021/04/28 09:18:39;;;;;;;21.42;12.88;;;;;;;17.15;64.21;97246.72;4956420;28;20125;-75
2021/04/28 09:21:05;;;;;;;25.15;13.45;;;;;;;16.92;65.06;97245.31;4951373;28;20030;-74
2021/04/28 09:23:38;;;;;;;33.75;14.95;;;;;;;17.11;63.98;97245.28;4937235;28;20030;-74
2021/04/28 09:26:15;;;;;;;27.85;13.90;;;;;;;16.65;66.08;97241.44;4939214;28;20575;-76
2021/04/28 09:28:50;;;;;;;28.23;13.75;;;;;;;16.73;65.76;97241.56;4965850;28;20056;-76
2021/04/28 09:31:17;;;;;;;27.17;13.32;;;;;;;16.91;65.45;97238.19;4963963;28;20078;-75
2021/04/28 09:33:52;;;;;;;24.00;13.55;;;;;;;16.89;65.24;97249.13;4939790;28;20030;-74
2021/04/28 09:36:30;;;;;;;26.50;14.70;;;;;;;16.56;66.20;97236.88;4955549;28;20034;-76
2021/04/28 09:39:09;;;;;;;30.23;15.45;;;;;;;16.38;67.94;97241.22;4966254;28;20035;-76
2021/04/28 09:41:44;;;;;;;62.45;16.15;;;;;;;16.30;67.75;97246.44;4939475;28;20031;-75
2021/04/28 09:44:19;;;;;;;30.83;15.13;;;;;;;16.28;68.05;97254.66;4955750;28;20402;-76
2021/04/28 09:47:08;;;;;;;37.22;14.63;;;;;;;16.60;67.85;97243.72;4972958;28;20515;-76
2021/04/28 09:49:45;;;;;;;27.67;15.10;;;;;;;16.55;68.32;97243.25;4952249;29;20050;-76
2021/04/28 09:52:11;;;;;;;28.20;14.98;;;;;;;16.79;66.52;97242.88;4970164;28;20054;-76
2021/04/28 09:54:37;;;;;;;25.30;14.65;;;;;;;17.01;65.64;97234.47;4955301;28;20051;-76
2021/04/28 09:57:03;;;;;;;32.13;14.93;;;;;;;16.97;64.77;97224.13;4962194;28;20392;-76
2021/04/28 09:59:51;;;;;;;25.60;14.60;;;;;;;16.76;66.29;97233.19;4956767;28;20023;-74
2021/04/28 10:02:28;;;;;;;26.98;15.63;;;;;;;16.66;66.18;97235.03;4936418;28;20043;-74
2021/04/28 10:04:58;;;;;;;28.05;14.60;;;;;;;16.69;67.07;97223.09;4950426;28;20054;-74
2021/04/28 10:07:27;;;;;;;27.02;14.18;;;;;;;16.99;66.64;97222.09;4939324;28;20041;-74
2021/04/28 10:09:56;;;;;;;22.85;13.07;;;;;;;17.23;65.37;97230.63;4939202;28;20115;-75
2021/04/28 10:12:22;;;;;;;20.42;12.25;;;;;;;17.42;64.60;97240.56;4954573;28;20054;-75
2021/04/28 10:14:48;;;;;;;27.20;13.07;;;;;;;17.56;64.15;97235.63;4972016;28;20070;-74
2021/04/28 10:17:16;;;;;;;20.33;12.30;;;;;;;17.52;63.94;97234.16;4954845;28;20516;-74
2021/04/28 10:19:42;;;;;;;25.02;14.60;;;;;;;17.05;64.22;97235.91;4939191;28;20121;-74
2021/04/28 10:22:10;;;;;;;23.80;13.05;;;;;;;17.07;65.07;97238.47;4938561;28;20470;-76
2021/04/28 10:24:38;;;;;;;27.75;15.57;;;;;;;17.08;64.82;97242.88;4954940;28;20474;-74
2021/04/28 10:27:05;;;;;;;25.98;12.88;;;;;;;16.97;64.63;97240.31;4939043;28;20041;-74
2021/04/28 10:29:32;;;;;;;24.35;12.35;;;;;;;16.84;65.32;97231.63;4955145;28;20070;-74
2021/04/28 10:31:58;;;;;;;22.42;11.98;;;;;;;16.75;66.20;97239.59;4955373;28;20459;-76
2021/04/28 10:34:34;;;;;;;22.13;12.90;;;;;;;16.73;65.75;97236.16;4951446;28;20478;-76
2021/04/28 10:36:59;;;;;;;25.08;14.10;;;;;;;16.92;65.32;97226.41;4927674;29;20078;-76
2021/04/28 10:39:27;;;;;;;23.20;13.20;;;;;;;16.75;65.24;97234.19;4958821;28;20055;-76
2021/04/28 10:41:54;;;;;;;23.13;13.60;;;;;;;16.83;65.44;97243.47;4942968;28;20034;-76
2021/04/28 10:44:40;;;;;;;28.58;13.68;;;;;;;16.86;64.74;97243.19;4958875;28;20395;-76
2021/04/28 10:47:39;;;;;;;21.83;13.38;;;;;;;16.95;65.45;97239.63;4947539;28;20437;-74
2021/04/28 10:50:20;;;;;;;21.27;11.25;;;;;;;17.25;63.66;97234.06;4944493;28;20026;-75
2021/04/28 10:52:49;;;;;;;28.42;10.90;;;;;;;17.25;63.75;97236.75;4974773;28;20038;-75
2021/04/28 10:55:40;;;;;;;20.20;11.80;;;;;;;17.24;63.59;97241.31;4958267;28;20042;-75
2021/04/28 10:58:36;;;;;;;20.10;11.80;;;;;;;17.20;63.22;97239.03;4958441;28;20387;-76
2021/04/28 11:01:02;;;;;;;22.33;12.93;;;;;;;16.95;64.46;97245.03;4943684;28;20129;-75
2021/04/28 11:03:31;;;;;;;17.67;12.18;;;;;;;16.90;64.42;97252.69;4971358;28;20027;-75
2021/04/28 11:08:45;;;;;;;23.13;11.27;;;;;;;16.92;63.86;97235.34;4962029;28;20407;-76
2021/04/28 11:16:46;;;;;;;17.48;10.93;;;;;;;16.61;65.47;97236.47;4975757;28;20479;-76
2021/04/28 11:19:35;;;;;;;20.90;11.52;;;;;;;16.50;66.28;97226.59;4941934;28;20046;-75
2021/04/28 11:22:06;;;;;;;26.20;12.40;;;;;;;16.48;66.20;97247.50;4949573;28;20034;-75
2021/04/28 11:25:03;;;;;;;19.92;11.35;;;;;;;16.18;67.29;97234.06;4975156;28;20505;-75
2021/04/28 11:27:57;;;;;;;16.83;11.10;;;;;;;16.31;68.02;97239.19;4973822;28;20423;-75